This is the latest recevied weather packets stored in our database for station/object KZ4HT-13. If no packets are shown the sender has not sent any weather packets the latest 10 day(s).
| Time | Temp. | Humidity | Pressure | Rain* | Wind** | Luminosity | Snow |
|---|---|---|---|---|---|---|---|
| 1777653075 | 31.11° C | 51% | 1012.9 hPa | 0 mm | - | - | - |
| 1777650065 | 30.56° C | 52% | 1013.2 hPa | 0 mm | - | - | - |
| 1777647056 | 29.44° C | 60% | 1013.2 hPa | 0 mm | - | - | - |
| 1777644047 | 27.78° C | 68% | 1013.3 hPa | 0 mm | - | - | - |
| 1777638045 | 22.78° C | 92% | 1013.1 hPa | 0 mm | - | - | - |
| 1777636822 | 22.22° C | 94% | 1013 hPa | 0 mm | - | - | - |
| 1777635075 | 21.67° C | 95% | 1012.6 hPa | 0 mm | - | - | - |
| 1777633270 | 21.67° C | 95% | 1012.3 hPa | 0 mm | - | - | - |
| 1777631464 | 21.67° C | 95% | 1012.4 hPa | 0 mm | - | - | - |
| 1777630881 | 21.67° C | 94% | 1012.3 hPa | 0 mm | - | - | - |
| 1777626646 | 21.67° C | 94% | 1012 hPa | 0 mm | - | - | - |
| 1777624841 | 21.67° C | 93% | 1011.1 hPa | 0 mm | - | - | - |
| 1777623035 | 21.67° C | 93% | 1011.5 hPa | 0 mm | - | - | - |
| 1777620646 | 21.11° C | 92% | 1011.7 hPa | 0 mm | - | - | - |
| 1777618822 | 21.11° C | 89% | 1011.7 hPa | 0 mm | - | - | - |
| 1777605640 | 23.33° C | 75% | 1012.6 hPa | 0 mm | - | - | - |
| 1777605039 | 23.89° C | 74% | 1012.5 hPa | 0 mm | - | - | - |
| 1777603235 | 24.44° C | 70% | 1012.4 hPa | 0 mm | - | - | - |
| 1777600831 | 25° C | 65% | 1012.1 hPa | 0 mm | - | - | - |
| 1777594294 | 27.22° C | 53% | 1011.1 hPa | 0 mm | - | - | - |
| 1777593072 | 27.78° C | 52% | 1010.7 hPa | 0 mm | - | - | - |
| 1777590667 | 28.89° C | 49% | 1010.4 hPa | 0 mm | - | - | - |
| 1777586457 | 30° C | 43% | 1010 hPa | 0 mm | - | - | - |
| 1777578654 | 32.78° C | 38% | 1010.5 hPa | 0 mm | - | - | - |
| 1777572669 | 31.11° C | 43% | 1011.6 hPa | 0 mm | - | - | - |
* Rain since midnight (hover to see other rain measurements)
** Current wind speed in m/s (hover to see current wind gust speed)